Terminal Aerodrome Forecast
Issued by NWS

Home | Current Version | Previous Version | Text Only | Print | Product List | Glossary On
Versions: 1 2 3 4 5 6 7 8 9 10 11 12 13 14 15 16
000
FTUS43 KJKL 212300
TAFSJS
TAF
KSJS 212320Z 2200/2224 30004KT P6SM SKC
     FM220600 VRB03KT P6SM BKN025
     FM220900 VRB03KT P6SM BKN007
     FM221600 VRB03KT P6SM SCT015 SCT035=

USA.gov is the U.S. government's official web portal to all federal, state and local government web resources and services.